Chester County G O Carlson Airport


Codes: KMQS/CTH
Name: Chester County G O Carlson Airport
City: Coatesville
Country: United States
Elevation: 660 ft.
Website:
Wikipedia:

Photos at Chester County G O Carlson Airport


   Photos courtesy of SpottingLog. You can add your own sightings and photos by signing up for a free trial today.



No photos found.

Weather at Chester County G O Carlson Airport


Time (UTC)DescriptionTempratureWindCloud coverageVisibilityPressureHumidity
25-Jun-2024 15:00Scattered Clouds23°C9 mph, W33%10000m1006hPa59%
25-Jun-2024 18:00Broken Clouds26°C11 mph, W60%10000m1010hPa46%
25-Jun-2024 21:00Scattered Clouds28°C9 mph, SW29%10000m1011hPa42%
26-Jun-2024 00:00Scattered Clouds23°C9 mph, S49%10000m1011hPa63%
26-Jun-2024 03:00Overcast Clouds21°C11 mph, S86%10000m1011hPa59%
26-Jun-2024 06:00Overcast Clouds21°C13 mph, S93%10000m1010hPa73%
26-Jun-2024 09:00Overcast Clouds20°C7 mph, SW100%10000m1010hPa73%
26-Jun-2024 12:00Overcast Clouds23°C7 mph, SW100%10000m1010hPa67%
26-Jun-2024 15:00Light Rain25°C7 mph, N100%10000m1009hPa75%
26-Jun-2024 18:00Overcast Clouds30°C9 mph, SW100%10000m1008hPa53%
26-Jun-2024 21:00Scattered Clouds30°C9 mph, W36%10000m1006hPa51%
27-Jun-2024 00:00Light Rain20°C16 mph, SW53%10000m1006hPa92%
27-Jun-2024 03:00Light Rain19°C4 mph, SW100%10000m1006hPa97%
27-Jun-2024 06:00Light Rain20°C13 mph, SW100%10000m1006hPa94%
27-Jun-2024 09:00Overcast Clouds19°C9 mph, W100%10000m1007hPa97%
27-Jun-2024 12:00Broken Clouds19°C11 mph, NW83%10000m1009hPa90%
27-Jun-2024 15:00Clear Sky23°C11 mph, NW3%10000m1010hPa61%
27-Jun-2024 18:00Clear Sky25°C9 mph, NW3%10000m1011hPa52%
27-Jun-2024 21:00Clear Sky26°C9 mph, NW0%10000m1011hPa49%
28-Jun-2024 00:00Clear Sky22°C2 mph, NW0%10000m1012hPa67%
28-Jun-2024 03:00Clear Sky18°C7 mph, NE0%10000m1014hPa68%
28-Jun-2024 06:00Few Clouds15°C7 mph, NE15%10000m1015hPa70%
28-Jun-2024 09:00Overcast Clouds14°C7 mph, NE99%10000m1017hPa63%
28-Jun-2024 12:00Broken Clouds17°C7 mph, NE77%10000m1019hPa57%
28-Jun-2024 15:00Scattered Clouds24°C9 mph, SE41%10000m1019hPa43%
28-Jun-2024 18:00Few Clouds27°C11 mph, SE23%10000m1018hPa43%
28-Jun-2024 21:00Broken Clouds26°C13 mph, S54%10000m1017hPa50%
29-Jun-2024 00:00Broken Clouds21°C13 mph, SE64%10000m1019hPa72%
29-Jun-2024 03:00Overcast Clouds20°C13 mph, SE100%10000m1019hPa82%
29-Jun-2024 06:00Light Rain19°C11 mph, SE100%10000m1019hPa95%
29-Jun-2024 09:00Light Rain20°C13 mph, SE100%5926m1018hPa96%
29-Jun-2024 12:00Moderate Rain20°C11 mph, S100%1950m1018hPa99%
29-Jun-2024 15:00Moderate Rain22°C9 mph, N100%0m1018hPa99%
29-Jun-2024 18:00Overcast Clouds25°C11 mph, SW100%10000m1017hPa88%
29-Jun-2024 21:00Light Rain30°C9 mph, SW91%10000m1015hPa70%
30-Jun-2024 00:00Light Rain22°C13 mph, S95%10000m1015hPa94%
30-Jun-2024 03:00Light Rain23°C11 mph, S100%10000m1016hPa95%
30-Jun-2024 06:00Light Rain22°C4 mph, SW100%10000m1015hPa98%
30-Jun-2024 09:00Overcast Clouds22°C9 mph, SW100%10000m1014hPa98%
30-Jun-2024 12:00Overcast Clouds22°C7 mph, SW100%10000m1015hPa96%